Airfield :
LOGIN :

Register | Disclaimer

   EN    FR    IT 

 










Legend :    VFR   Marginal VFR   IFR   Intensive IFR   Very Intensive IFR
Visi :
Ceiling :
>= 8 km
>= 3000ft
5 to 8 km
1000 to 3000 ft
1500m to 5 km
500 to 1000 ft
800 to 1500m
200 to 500 ft
< 800m
< 200 ft
Symbols :   Thunderstorms  Fog  Heavy snow  Heavy precipitations  Wind > 20 kt
SIGMETs :     Misc.  Thunderstorms  Icing  Turbulence  Mountain Waves  Volcanic Ashes







- Airport Elevation : 100 ft


EBDT - Schaffen

CURRENT METAR :
  • 300025Z AUTO 18005KT 9999 BKN220/// 11/07 Q1026 BLU

EXPIRED METARs :
  • 292355Z AUTO 20007KT 9999 FEW230/// 12/07 Q1026 BLU
  • 292325Z AUTO 20005KT 9999 SCT130/// 12/07 Q1026 BLU
  • 292255Z AUTO 20005KT 9999 BKN070/// 12/07 Q1026 BLU
  • 292225Z AUTO 20004KT 9999 BKN080/// 12/07 Q1026 BLU
  • 292155Z AUTO 20004KT 9999 BKN075/// 13/07 Q1026 BLU
  • 292125Z AUTO 20004KT 9999 FEW060/// BKN080/// 13/07 Q1026 BLU

TAF TAF EBDT
Valid from the 29 at 19:00 until the 30 at 07:00 UTC


291541Z 2919/3007 22007KT 9999 SCT025 SCT035
No reported NOTAMs for that airfield.



MET'MAP, your aeronautical weather chart ! - Copyright ORBIFLY December 2007 - Disclaimer

ORBIFLY MET'MAP TEAM :

Programming & Development : Alexandra Zaïnal
Concept & Development : Baudouin d'Aumeries
Co-Development & Prog : Marc-Olivier Méhu
Technical & hardware support : Manuel Goepfert

Contact : metmap@orbifly.com




SOURCES & CREDITS :

   NOAA